sensor_id;sensor_type;location;lat;lon;timestamp;temperature;humidity
1259;DHT22;619;51.472;6.628;2022-12-07T00:01:35;12.60;87.80
1259;DHT22;619;51.472;6.628;2022-12-07T00:04:05;12.60;87.80
1259;DHT22;619;51.472;6.628;2022-12-07T00:06:42;12.60;87.60
1259;DHT22;619;51.472;6.628;2022-12-07T00:09:12;12.60;87.60
1259;DHT22;619;51.472;6.628;2022-12-07T00:11:38;12.70;88.40
1259;DHT22;619;51.472;6.628;2022-12-07T00:14:06;12.60;87.60
1259;DHT22;619;51.472;6.628;2022-12-07T00:16:33;12.60;87.70
1259;DHT22;619;51.472;6.628;2022-12-07T00:18:59;12.60;87.60
1259;DHT22;619;51.472;6.628;2022-12-07T00:21:27;12.60;87.70
1259;DHT22;619;51.472;6.628;2022-12-07T00:23:54;12.70;87.70
1259;DHT22;619;51.472;6.628;2022-12-07T00:26:31;12.70;87.80
1259;DHT22;619;51.472;6.628;2022-12-07T00:28:59;12.60;87.60
1259;DHT22;619;51.472;6.628;2022-12-07T00:31:29;12.70;87.70
1259;DHT22;619;51.472;6.628;2022-12-07T00:33:57;12.60;88.30
1259;DHT22;619;51.472;6.628;2022-12-07T00:36:24;12.60;87.60
1259;DHT22;619;51.472;6.628;2022-12-07T00:38:50;12.60;87.70
1259;DHT22;619;51.472;6.628;2022-12-07T00:41:18;12.60;87.80
1259;DHT22;619;51.472;6.628;2022-12-07T00:43:45;12.60;87.60
1259;DHT22;619;51.472;6.628;2022-12-07T00:46:15;12.60;87.70
1259;DHT22;619;51.472;6.628;2022-12-07T00:48:41;12.60;87.70
1259;DHT22;619;51.472;6.628;2022-12-07T00:51:07;12.60;87.60
1259;DHT22;619;51.472;6.628;2022-12-07T00:53:35;12.60;87.70
1259;DHT22;619;51.472;6.628;2022-12-07T00:56:09;12.50;87.50
1259;DHT22;619;51.472;6.628;2022-12-07T00:58:37;12.60;87.60
1259;DHT22;619;51.472;6.628;2022-12-07T01:01:07;12.60;87.50
1259;DHT22;619;51.472;6.628;2022-12-07T01:03:33;12.50;87.50
1259;DHT22;619;51.472;6.628;2022-12-07T01:05:58;12.50;87.70
1259;DHT22;619;51.472;6.628;2022-12-07T01:08:25;12.40;87.70
1259;DHT22;619;51.472;6.628;2022-12-07T01:11:03;12.40;87.70
1259;DHT22;619;51.472;6.628;2022-12-07T01:13:33;12.40;87.70
1259;DHT22;619;51.472;6.628;2022-12-07T01:16:04;12.40;87.60
1259;DHT22;619;51.472;6.628;2022-12-07T01:18:31;12.40;88.50
1259;DHT22;619;51.472;6.628;2022-12-07T01:21:27;12.30;87.60
1259;DHT22;619;51.472;6.628;2022-12-07T01:23:56;12.30;87.70
1259;DHT22;619;51.472;6.628;2022-12-07T01:26:23;12.30;87.70
1259;DHT22;619;51.472;6.628;2022-12-07T01:28:49;12.20;87.60
1259;DHT22;619;51.472;6.628;2022-12-07T01:31:18;12.20;87.70
1259;DHT22;619;51.472;6.628;2022-12-07T01:33:48;12.20;87.80
1259;DHT22;619;51.472;6.628;2022-12-07T01:38:47;12.10;87.80
1259;DHT22;619;51.472;6.628;2022-12-07T01:41:17;12.10;87.90
1259;DHT22;619;51.472;6.628;2022-12-07T01:46:36;12.00;88.00
1259;DHT22;619;51.472;6.628;2022-12-07T01:49:09;12.00;88.10
1259;DHT22;619;51.472;6.628;2022-12-07T01:51:38;11.90;88.10
1259;DHT22;619;51.472;6.628;2022-12-07T01:54:06;12.00;88.20
1259;DHT22;619;51.472;6.628;2022-12-07T01:56:34;11.90;88.10
1259;DHT22;619;51.472;6.628;2022-12-07T01:59:00;11.90;88.10
1259;DHT22;619;51.472;6.628;2022-12-07T02:01:28;11.90;88.00
1259;DHT22;619;51.472;6.628;2022-12-07T02:03:54;11.90;87.90
1259;DHT22;619;51.472;6.628;2022-12-07T02:06:24;11.90;87.80
1259;DHT22;619;51.472;6.628;2022-12-07T02:08:53;11.90;87.90
1259;DHT22;619;51.472;6.628;2022-12-07T02:11:19;11.90;87.80
1259;DHT22;619;51.472;6.628;2022-12-07T02:13:48;11.90;87.90
1259;DHT22;619;51.472;6.628;2022-12-07T02:30:09;11.90;87.60
1259;DHT22;619;51.472;6.628;2022-12-07T02:38:08;11.80;87.60
1259;DHT22;619;51.472;6.628;2022-12-07T02:40:51;11.80;87.70
1259;DHT22;619;51.472;6.628;2022-12-07T02:43:38;11.70;87.60
1259;DHT22;619;51.472;6.628;2022-12-07T02:46:09;11.60;87.60
1259;DHT22;619;51.472;6.628;2022-12-07T02:48:37;11.50;87.60
1259;DHT22;619;51.472;6.628;2022-12-07T02:51:03;11.40;87.60
1259;DHT22;619;51.472;6.628;2022-12-07T02:56:01;11.30;87.70
1259;DHT22;619;51.472;6.628;2022-12-07T03:01:48;11.20;88.20
1259;DHT22;619;51.472;6.628;2022-12-07T03:06:59;11.20;88.20
1259;DHT22;619;51.472;6.628;2022-12-07T03:09:35;11.20;88.20
1259;DHT22;619;51.472;6.628;2022-12-07T03:12:14;11.20;88.20
1259;DHT22;619;51.472;6.628;2022-12-07T03:14:50;11.10;88.10
1259;DHT22;619;51.472;6.628;2022-12-07T03:17:26;11.10;88.10
1259;DHT22;619;51.472;6.628;2022-12-07T03:19:57;11.10;88.00
1259;DHT22;619;51.472;6.628;2022-12-07T03:22:29;11.00;87.90
1259;DHT22;619;51.472;6.628;2022-12-07T03:25:03;11.00;87.90
1259;DHT22;619;51.472;6.628;2022-12-07T03:27:51;11.00;88.00
1259;DHT22;619;51.472;6.628;2022-12-07T03:30:20;10.90;87.80
1259;DHT22;619;51.472;6.628;2022-12-07T03:33:07;10.90;87.80
1259;DHT22;619;51.472;6.628;2022-12-07T03:35:40;10.80;87.70
1259;DHT22;619;51.472;6.628;2022-12-07T03:40:58;10.80;88.20
1259;DHT22;619;51.472;6.628;2022-12-07T03:43:29;10.80;88.40
1259;DHT22;619;51.472;6.628;2022-12-07T03:51:28;10.90;89.00
1259;DHT22;619;51.472;6.628;2022-12-07T03:54:05;10.90;89.00
1259;DHT22;619;51.472;6.628;2022-12-07T03:56:35;10.90;89.00
1259;DHT22;619;51.472;6.628;2022-12-07T03:59:01;10.90;89.00
1259;DHT22;619;51.472;6.628;2022-12-07T04:01:30;10.90;88.90
1259;DHT22;619;51.472;6.628;2022-12-07T04:03:58;11.00;89.10
1259;DHT22;619;51.472;6.628;2022-12-07T04:06:26;11.00;89.10
1259;DHT22;619;51.472;6.628;2022-12-07T04:08:54;11.00;89.00
1259;DHT22;619;51.472;6.628;2022-12-07T04:11:22;11.00;89.00
1259;DHT22;619;51.472;6.628;2022-12-07T04:13:48;11.00;89.00
1259;DHT22;619;51.472;6.628;2022-12-07T04:16:36;11.00;88.80
1259;DHT22;619;51.472;6.628;2022-12-07T04:19:04;11.00;88.60
1259;DHT22;619;51.472;6.628;2022-12-07T04:21:32;10.90;88.60
1259;DHT22;619;51.472;6.628;2022-12-07T04:23:57;10.90;88.70
1259;DHT22;619;51.472;6.628;2022-12-07T04:26:23;10.90;88.70
1259;DHT22;619;51.472;6.628;2022-12-07T04:28:51;10.80;88.60
1259;DHT22;619;51.472;6.628;2022-12-07T04:31:16;10.80;88.70
1259;DHT22;619;51.472;6.628;2022-12-07T04:33:42;10.80;88.60
1259;DHT22;619;51.472;6.628;2022-12-07T04:36:08;10.80;88.60
1259;DHT22;619;51.472;6.628;2022-12-07T04:38:33;10.80;88.50
1259;DHT22;619;51.472;6.628;2022-12-07T04:41:07;10.70;88.30
1259;DHT22;619;51.472;6.628;2022-12-07T04:43:33;10.70;88.40
1259;DHT22;619;51.472;6.628;2022-12-07T04:45:59;10.70;88.40
1259;DHT22;619;51.472;6.628;2022-12-07T04:48:24;10.70;88.30
1259;DHT22;619;51.472;6.628;2022-12-07T04:50:52;10.70;88.40
1259;DHT22;619;51.472;6.628;2022-12-07T04:53:20;10.70;88.50
1259;DHT22;619;51.472;6.628;2022-12-07T04:55:46;10.70;88.40
1259;DHT22;619;51.472;6.628;2022-12-07T04:58:13;10.70;89.30
1259;DHT22;619;51.472;6.628;2022-12-07T05:00:38;10.60;88.40
1259;DHT22;619;51.472;6.628;2022-12-07T05:03:04;10.60;88.60
1259;DHT22;619;51.472;6.628;2022-12-07T05:05:30;10.60;88.60
1259;DHT22;619;51.472;6.628;2022-12-07T05:07:55;10.60;88.60
1259;DHT22;619;51.472;6.628;2022-12-07T05:10:23;10.60;88.60
1259;DHT22;619;51.472;6.628;2022-12-07T05:12:51;10.70;88.80
1259;DHT22;619;51.472;6.628;2022-12-07T05:15:17;10.70;88.60
1259;DHT22;619;51.472;6.628;2022-12-07T05:17:43;10.70;88.50
1259;DHT22;619;51.472;6.628;2022-12-07T05:20:09;10.70;88.50
1259;DHT22;619;51.472;6.628;2022-12-07T05:22:37;10.80;88.60
1259;DHT22;619;51.472;6.628;2022-12-07T05:25:03;10.80;88.50
1259;DHT22;619;51.472;6.628;2022-12-07T05:27:29;10.90;88.60
1259;DHT22;619;51.472;6.628;2022-12-07T05:29:54;10.90;88.30
1259;DHT22;619;51.472;6.628;2022-12-07T05:32:20;11.00;88.40
1259;DHT22;619;51.472;6.628;2022-12-07T05:34:50;11.00;88.30
1259;DHT22;619;51.472;6.628;2022-12-07T05:37:15;11.00;88.00
1259;DHT22;619;51.472;6.628;2022-12-07T05:39:41;11.10;87.80
1259;DHT22;619;51.472;6.628;2022-12-07T05:42:10;11.10;87.70
1259;DHT22;619;51.472;6.628;2022-12-07T05:44:40;11.20;87.70
1259;DHT22;619;51.472;6.628;2022-12-07T05:47:06;11.20;87.50
1259;DHT22;619;51.472;6.628;2022-12-07T05:49:34;11.20;87.40
1259;DHT22;619;51.472;6.628;2022-12-07T05:52:00;11.20;87.20
1259;DHT22;619;51.472;6.628;2022-12-07T05:54:26;11.30;87.10
1259;DHT22;619;51.472;6.628;2022-12-07T05:56:54;11.30;86.90
1259;DHT22;619;51.472;6.628;2022-12-07T05:59:22;11.30;86.70
1259;DHT22;619;51.472;6.628;2022-12-07T06:02:07;11.30;86.60
1259;DHT22;619;51.472;6.628;2022-12-07T06:04:39;11.30;86.40
1259;DHT22;619;51.472;6.628;2022-12-07T06:07:09;11.30;86.40
1259;DHT22;619;51.472;6.628;2022-12-07T06:09:37;11.30;86.30
1259;DHT22;619;51.472;6.628;2022-12-07T06:12:04;11.20;86.20
1259;DHT22;619;51.472;6.628;2022-12-07T06:14:48;11.10;86.20
1259;DHT22;619;51.472;6.628;2022-12-07T06:17:14;11.10;86.20
1259;DHT22;619;51.472;6.628;2022-12-07T06:19:41;11.10;86.40
1259;DHT22;619;51.472;6.628;2022-12-07T06:22:07;11.10;86.50
1259;DHT22;619;51.472;6.628;2022-12-07T06:24:35;11.10;86.50
1259;DHT22;619;51.472;6.628;2022-12-07T06:27:00;11.10;86.60
1259;DHT22;619;51.472;6.628;2022-12-07T06:29:26;11.10;86.60
1259;DHT22;619;51.472;6.628;2022-12-07T06:31:52;11.10;86.60
1259;DHT22;619;51.472;6.628;2022-12-07T06:34:20;11.10;86.40
1259;DHT22;619;51.472;6.628;2022-12-07T06:36:46;11.20;86.50
1259;DHT22;619;51.472;6.628;2022-12-07T06:39:21;11.20;86.50
1259;DHT22;619;51.472;6.628;2022-12-07T06:41:50;11.30;86.50
1259;DHT22;619;51.472;6.628;2022-12-07T06:44:19;11.30;86.40
1259;DHT22;619;51.472;6.628;2022-12-07T06:46:48;11.30;86.30
1259;DHT22;619;51.472;6.628;2022-12-07T06:49:18;11.40;86.30
1259;DHT22;619;51.472;6.628;2022-12-07T06:51:47;11.40;86.00
1259;DHT22;619;51.472;6.628;2022-12-07T06:54:14;11.40;85.70
1259;DHT22;619;51.472;6.628;2022-12-07T06:56:40;11.40;85.50
1259;DHT22;619;51.472;6.628;2022-12-07T06:59:07;11.40;85.20
1259;DHT22;619;51.472;6.628;2022-12-07T07:01:35;11.30;85.00
1259;DHT22;619;51.472;6.628;2022-12-07T07:04:01;11.30;85.00
1259;DHT22;619;51.472;6.628;2022-12-07T07:06:27;11.30;84.90
1259;DHT22;619;51.472;6.628;2022-12-07T07:08:55;11.30;84.90
1259;DHT22;619;51.472;6.628;2022-12-07T07:11:25;11.30;84.90
1259;DHT22;619;51.472;6.628;2022-12-07T07:13:51;11.20;84.90
1259;DHT22;619;51.472;6.628;2022-12-07T07:16:16;11.20;84.80
1259;DHT22;619;51.472;6.628;2022-12-07T07:18:42;11.10;84.70
1259;DHT22;619;51.472;6.628;2022-12-07T07:21:08;11.10;85.00
1259;DHT22;619;51.472;6.628;2022-12-07T07:23:35;11.10;85.20
1259;DHT22;619;51.472;6.628;2022-12-07T07:26:02;11.10;85.10
1259;DHT22;619;51.472;6.628;2022-12-07T07:28:27;11.00;84.70
1259;DHT22;619;51.472;6.628;2022-12-07T07:30:53;11.00;84.60
1259;DHT22;619;51.472;6.628;2022-12-07T07:33:18;11.00;84.60
1259;DHT22;619;51.472;6.628;2022-12-07T07:35:46;10.90;84.80
1259;DHT22;619;51.472;6.628;2022-12-07T07:38:14;10.80;85.00
1259;DHT22;619;51.472;6.628;2022-12-07T07:40:40;10.80;85.20
1259;DHT22;619;51.472;6.628;2022-12-07T07:43:05;10.80;85.20
1259;DHT22;619;51.472;6.628;2022-12-07T07:45:31;10.70;85.00
1259;DHT22;619;51.472;6.628;2022-12-07T07:47:57;10.70;84.80
1259;DHT22;619;51.472;6.628;2022-12-07T07:50:22;10.60;84.70
1259;DHT22;619;51.472;6.628;2022-12-07T07:52:48;10.60;84.70
1259;DHT22;619;51.472;6.628;2022-12-07T07:55:14;10.50;84.80
1259;DHT22;619;51.472;6.628;2022-12-07T07:57:42;10.50;85.10
1259;DHT22;619;51.472;6.628;2022-12-07T08:00:13;10.50;85.40
1259;DHT22;619;51.472;6.628;2022-12-07T08:02:39;10.50;85.60
1259;DHT22;619;51.472;6.628;2022-12-07T08:05:06;10.50;85.70
1259;DHT22;619;51.472;6.628;2022-12-07T08:07:32;10.40;85.60
1259;DHT22;619;51.472;6.628;2022-12-07T08:09:57;10.50;85.80
1259;DHT22;619;51.472;6.628;2022-12-07T08:12:28;10.40;85.80
1259;DHT22;619;51.472;6.628;2022-12-07T08:14:53;10.40;86.00
1259;DHT22;619;51.472;6.628;2022-12-07T08:17:24;10.40;86.10
1259;DHT22;619;51.472;6.628;2022-12-07T08:19:52;10.40;86.20
1259;DHT22;619;51.472;6.628;2022-12-07T08:22:18;10.40;86.30
1259;DHT22;619;51.472;6.628;2022-12-07T08:24:44;10.50;86.50
1259;DHT22;619;51.472;6.628;2022-12-07T08:27:12;10.50;86.60
1259;DHT22;619;51.472;6.628;2022-12-07T08:29:40;10.50;86.60
1259;DHT22;619;51.472;6.628;2022-12-07T08:32:06;10.60;86.70
1259;DHT22;619;51.472;6.628;2022-12-07T08:34:34;10.60;86.80
1259;DHT22;619;51.472;6.628;2022-12-07T08:37:00;10.60;86.80
1259;DHT22;619;51.472;6.628;2022-12-07T08:39:25;10.70;87.40
1259;DHT22;619;51.472;6.628;2022-12-07T08:41:53;10.70;86.60
1259;DHT22;619;51.472;6.628;2022-12-07T08:44:19;10.80;86.50
1259;DHT22;619;51.472;6.628;2022-12-07T08:46:56;10.80;86.40
1259;DHT22;619;51.472;6.628;2022-12-07T08:49:27;10.80;86.50
1259;DHT22;619;51.472;6.628;2022-12-07T08:51:55;10.80;86.50
1259;DHT22;619;51.472;6.628;2022-12-07T08:54:23;10.90;86.70
1259;DHT22;619;51.472;6.628;2022-12-07T08:56:49;10.90;86.80
1259;DHT22;619;51.472;6.628;2022-12-07T08:59:17;11.00;87.00
1259;DHT22;619;51.472;6.628;2022-12-07T09:01:47;11.00;87.00
1259;DHT22;619;51.472;6.628;2022-12-07T09:04:12;11.10;87.30
1259;DHT22;619;51.472;6.628;2022-12-07T09:06:40;11.30;87.50
1259;DHT22;619;51.472;6.628;2022-12-07T09:09:10;11.40;87.40
1259;DHT22;619;51.472;6.628;2022-12-07T09:11:36;11.50;87.20
1259;DHT22;619;51.472;6.628;2022-12-07T09:14:02;11.60;86.80
1259;DHT22;619;51.472;6.628;2022-12-07T09:16:28;11.60;86.20
1259;DHT22;619;51.472;6.628;2022-12-07T09:18:56;11.70;86.00
1259;DHT22;619;51.472;6.628;2022-12-07T09:21:21;11.70;85.50
1259;DHT22;619;51.472;6.628;2022-12-07T09:23:47;11.70;85.10
1259;DHT22;619;51.472;6.628;2022-12-07T09:26:15;11.70;85.00
1259;DHT22;619;51.472;6.628;2022-12-07T09:28:42;11.70;84.80
1259;DHT22;619;51.472;6.628;2022-12-07T09:31:08;11.70;84.90
1259;DHT22;619;51.472;6.628;2022-12-07T09:33:36;11.70;84.90
1259;DHT22;619;51.472;6.628;2022-12-07T09:36:04;11.70;84.80
1259;DHT22;619;51.472;6.628;2022-12-07T09:38:33;11.70;84.80
1259;DHT22;619;51.472;6.628;2022-12-07T09:41:07;11.80;85.20
1259;DHT22;619;51.472;6.628;2022-12-07T09:43:35;11.90;85.70
1259;DHT22;619;51.472;6.628;2022-12-07T09:46:04;12.00;85.50
1259;DHT22;619;51.472;6.628;2022-12-07T09:48:33;12.10;85.40
1259;DHT22;619;51.472;6.628;2022-12-07T09:51:17;12.20;85.30
1259;DHT22;619;51.472;6.628;2022-12-07T09:53:46;12.30;84.90
1259;DHT22;619;51.472;6.628;2022-12-07T09:56:14;12.30;84.20
1259;DHT22;619;51.472;6.628;2022-12-07T09:58:40;12.40;84.00
1259;DHT22;619;51.472;6.628;2022-12-07T10:03:39;12.50;83.80
1259;DHT22;619;51.472;6.628;2022-12-07T10:06:06;12.60;83.70
1259;DHT22;619;51.472;6.628;2022-12-07T10:08:33;12.60;83.10
1259;DHT22;619;51.472;6.628;2022-12-07T10:11:01;12.60;82.90
1259;DHT22;619;51.472;6.628;2022-12-07T10:13:39;12.70;83.10
1259;DHT22;619;51.472;6.628;2022-12-07T10:16:32;12.80;83.30
1259;DHT22;619;51.472;6.628;2022-12-07T10:22:11;12.90;82.80
1259;DHT22;619;51.472;6.628;2022-12-07T10:24:41;13.00;82.50
1259;DHT22;619;51.472;6.628;2022-12-07T10:27:34;13.10;81.90
1259;DHT22;619;51.472;6.628;2022-12-07T10:30:07;13.10;81.40
1259;DHT22;619;51.472;6.628;2022-12-07T10:32:36;13.30;81.60
1259;DHT22;619;51.472;6.628;2022-12-07T10:37:48;13.50;81.50
1259;DHT22;619;51.472;6.628;2022-12-07T10:49:08;14.10;80.50
1259;DHT22;619;51.472;6.628;2022-12-07T10:54:17;14.30;79.10
1259;DHT22;619;51.472;6.628;2022-12-07T11:00:29;14.50;78.30
1259;DHT22;619;51.472;6.628;2022-12-07T11:05:36;14.60;78.00
1259;DHT22;619;51.472;6.628;2022-12-07T11:14:15;14.40;76.90
1259;DHT22;619;51.472;6.628;2022-12-07T11:28:09;14.30;78.20
1259;DHT22;619;51.472;6.628;2022-12-07T11:33:37;14.30;77.90
1259;DHT22;619;51.472;6.628;2022-12-07T11:36:51;14.30;77.90
1259;DHT22;619;51.472;6.628;2022-12-07T11:41:48;14.30;78.30
1259;DHT22;619;51.472;6.628;2022-12-07T11:47:11;14.40;78.10
1259;DHT22;619;51.472;6.628;2022-12-07T11:49:56;14.50;78.10
1259;DHT22;619;51.472;6.628;2022-12-07T11:52:38;14.50;77.70
1259;DHT22;619;51.472;6.628;2022-12-07T11:58:02;14.50;77.30
1259;DHT22;619;51.472;6.628;2022-12-07T12:00:29;14.50;77.40
1259;DHT22;619;51.472;6.628;2022-12-07T12:03:11;14.50;77.40
1259;DHT22;619;51.472;6.628;2022-12-07T12:05:43;14.60;77.50
1259;DHT22;619;51.472;6.628;2022-12-07T12:08:18;14.60;77.50
1259;DHT22;619;51.472;6.628;2022-12-07T12:11:44;14.70;77.70
1259;DHT22;619;51.472;6.628;2022-12-07T12:22:35;14.90;76.50
1259;DHT22;619;51.472;6.628;2022-12-07T12:25:06;14.90;76.30
1259;DHT22;619;51.472;6.628;2022-12-07T12:27:37;15.00;76.10
1259;DHT22;619;51.472;6.628;2022-12-07T12:30:07;14.90;75.80
1259;DHT22;619;51.472;6.628;2022-12-07T12:32:51;15.00;75.50
1259;DHT22;619;51.472;6.628;2022-12-07T12:35:28;14.90;75.20
1259;DHT22;619;51.472;6.628;2022-12-07T12:38:48;14.80;75.20
1259;DHT22;619;51.472;6.628;2022-12-07T12:46:52;14.70;76.60
1259;DHT22;619;51.472;6.628;2022-12-07T12:54:31;14.60;76.60
1259;DHT22;619;51.472;6.628;2022-12-07T13:02:35;14.30;76.80
1259;DHT22;619;51.472;6.628;2022-12-07T13:18:03;14.30;77.70
1259;DHT22;619;51.472;6.628;2022-12-07T13:20:47;14.30;77.70
1259;DHT22;619;51.472;6.628;2022-12-07T13:23:15;14.30;77.40
1259;DHT22;619;51.472;6.628;2022-12-07T13:25:54;14.30;77.30
1259;DHT22;619;51.472;6.628;2022-12-07T13:28:22;14.20;77.20
1259;DHT22;619;51.472;6.628;2022-12-07T13:31:04;14.20;77.30
1259;DHT22;619;51.472;6.628;2022-12-07T13:33:37;14.30;77.40
1259;DHT22;619;51.472;6.628;2022-12-07T13:36:03;14.30;77.40
1259;DHT22;619;51.472;6.628;2022-12-07T13:38:34;14.30;76.80
1259;DHT22;619;51.472;6.628;2022-12-07T13:43:53;14.30;76.90
1259;DHT22;619;51.472;6.628;2022-12-07T13:46:26;14.30;76.80
1259;DHT22;619;51.472;6.628;2022-12-07T13:48:55;14.30;76.60
1259;DHT22;619;51.472;6.628;2022-12-07T13:51:25;14.40;76.90
1259;DHT22;619;51.472;6.628;2022-12-07T13:53:59;14.30;76.10
1259;DHT22;619;51.472;6.628;2022-12-07T13:56:32;14.30;76.30
1259;DHT22;619;51.472;6.628;2022-12-07T13:58:59;14.30;76.50
1259;DHT22;619;51.472;6.628;2022-12-07T14:01:30;14.30;76.50
1259;DHT22;619;51.472;6.628;2022-12-07T14:04:35;14.20;76.30
1259;DHT22;619;51.472;6.628;2022-12-07T14:07:27;14.20;76.20
1259;DHT22;619;51.472;6.628;2022-12-07T14:10:00;14.10;76.20
1259;DHT22;619;51.472;6.628;2022-12-07T14:12:28;14.00;76.30
1259;DHT22;619;51.472;6.628;2022-12-07T14:14:55;13.90;76.30
1259;DHT22;619;51.472;6.628;2022-12-07T14:17:25;13.90;76.50
1259;DHT22;619;51.472;6.628;2022-12-07T14:22:34;13.70;76.90
1259;DHT22;619;51.472;6.628;2022-12-07T14:25:19;13.60;77.00
1259;DHT22;619;51.472;6.628;2022-12-07T14:27:57;13.60;77.50
1259;DHT22;619;51.472;6.628;2022-12-07T14:30:26;13.50;77.50
1259;DHT22;619;51.472;6.628;2022-12-07T14:32:56;13.40;77.80
1259;DHT22;619;51.472;6.628;2022-12-07T14:35:27;13.40;78.00
1259;DHT22;619;51.472;6.628;2022-12-07T14:37:53;13.30;78.30
1259;DHT22;619;51.472;6.628;2022-12-07T14:40:27;13.30;78.40
1259;DHT22;619;51.472;6.628;2022-12-07T14:43:05;13.20;78.40
1259;DHT22;619;51.472;6.628;2022-12-07T14:45:34;13.10;78.30
1259;DHT22;619;51.472;6.628;2022-12-07T14:48:04;13.10;78.40
1259;DHT22;619;51.472;6.628;2022-12-07T14:50:36;13.00;78.50
1259;DHT22;619;51.472;6.628;2022-12-07T14:53:15;13.00;78.60
1259;DHT22;619;51.472;6.628;2022-12-07T14:55:42;12.90;78.70
1259;DHT22;619;51.472;6.628;2022-12-07T14:58:15;12.90;78.60
1259;DHT22;619;51.472;6.628;2022-12-07T15:00:41;12.90;78.70
1259;DHT22;619;51.472;6.628;2022-12-07T15:03:08;12.80;78.70
1259;DHT22;619;51.472;6.628;2022-12-07T15:05:34;12.80;78.90
1259;DHT22;619;51.472;6.628;2022-12-07T15:08:00;12.80;79.00
1259;DHT22;619;51.472;6.628;2022-12-07T15:10:29;12.70;79.10
1259;DHT22;619;51.472;6.628;2022-12-07T15:13:01;12.70;79.20
1259;DHT22;619;51.472;6.628;2022-12-07T15:15:50;12.60;79.20
1259;DHT22;619;51.472;6.628;2022-12-07T15:18:19;12.60;79.30
1259;DHT22;619;51.472;6.628;2022-12-07T15:20:47;12.50;79.10
1259;DHT22;619;51.472;6.628;2022-12-07T15:23:13;12.50;79.10
1259;DHT22;619;51.472;6.628;2022-12-07T15:25:46;12.50;79.10
1259;DHT22;619;51.472;6.628;2022-12-07T15:28:12;12.40;79.30
1259;DHT22;619;51.472;6.628;2022-12-07T15:30:39;12.40;79.50
